createdAt,value
2022-09-12T00:01:23.124Z,18.02
2022-09-12T00:03:58.821Z,18.13
2022-09-12T00:06:28.372Z,18.16
2022-09-12T00:08:57.084Z,18.06
2022-09-12T00:11:24.051Z,18.04
2022-09-12T00:13:50.509Z,18.09
2022-09-12T00:16:20.210Z,18.12
2022-09-12T00:18:47.295Z,17.97
2022-09-12T00:21:14.369Z,17.86
2022-09-12T00:23:40.739Z,17.89
2022-09-12T00:26:07.943Z,18.07
2022-09-12T00:28:36.672Z,18.06
2022-09-12T00:31:09.246Z,17.98
2022-09-12T00:33:36.692Z,17.83
2022-09-12T00:36:08.787Z,17.88
2022-09-12T00:38:38.374Z,17.86
2022-09-12T00:41:06.315Z,17.69
2022-09-12T00:43:34.243Z,17.74
2022-09-12T00:46:26.754Z,17.51
2022-09-12T00:49:03.752Z,17.46
2022-09-12T00:51:33.896Z,17.57
2022-09-12T00:54:05.516Z,17.44
2022-09-12T00:56:32.895Z,17.51
2022-09-12T00:59:14.049Z,17.33
2022-09-12T01:01:43.639Z,17.26
2022-09-12T01:04:12.715Z,17.30
2022-09-12T01:06:41.654Z,17.41
2022-09-12T01:09:09.465Z,17.39
2022-09-12T01:11:38.782Z,17.41
2022-09-12T01:14:06.027Z,17.44
2022-09-12T01:16:36.144Z,17.38
2022-09-12T01:19:37.001Z,17.25
2022-09-12T01:22:40.666Z,17.15
2022-09-12T01:25:55.112Z,17.13
2022-09-12T01:28:58.751Z,17.09
2022-09-12T01:31:34.535Z,17.20
2022-09-12T01:34:13.115Z,17.26
2022-09-12T01:37:00.376Z,17.14
2022-09-12T01:40:01.294Z,17.15
2022-09-12T01:42:54.909Z,16.97
2022-09-12T01:45:24.040Z,17.04
2022-09-12T01:47:56.417Z,17.07
2022-09-12T01:50:27.984Z,17.15
2022-09-12T01:53:04.637Z,17.10
2022-09-12T01:55:36.938Z,17.10
2022-09-12T01:58:18.548Z,17.03
2022-09-12T02:00:59.768Z,17.06
2022-09-12T02:03:44.820Z,17.06
2022-09-12T02:06:41.823Z,16.93
2022-09-12T02:09:12.866Z,17.03
2022-09-12T02:11:43.447Z,17.02
2022-09-12T02:14:14.612Z,17.00
2022-09-12T02:17:04.735Z,16.98
2022-09-12T02:19:37.031Z,16.90
2022-09-12T02:22:05.025Z,16.82
2022-09-12T02:24:43.559Z,16.78
2022-09-12T02:27:15.195Z,16.87
2022-09-12T02:29:44.531Z,16.77
2022-09-12T02:32:32.778Z,16.58
2022-09-12T02:35:07.265Z,16.63
2022-09-12T02:37:53.045Z,16.68
2022-09-12T02:40:19.473Z,16.78
2022-09-12T02:42:46.121Z,16.74
2022-09-12T02:45:12.963Z,16.74
2022-09-12T02:47:49.096Z,16.66
2022-09-12T02:50:15.821Z,16.63
2022-09-12T02:52:42.847Z,16.69
2022-09-12T02:55:11.563Z,16.73
2022-09-12T02:57:38.329Z,16.68
2022-09-12T03:00:06.156Z,16.68
2022-09-12T03:02:49.803Z,16.61
2022-09-12T03:05:24.819Z,16.50
2022-09-12T03:08:06.558Z,16.52
2022-09-12T03:10:37.555Z,16.52
2022-09-12T03:13:32.367Z,16.49
2022-09-12T03:16:23.885Z,16.36
2022-09-12T03:19:27.751Z,16.44
2022-09-12T03:22:09.210Z,16.52
2022-09-12T03:24:41.047Z,16.57
2022-09-12T03:27:14.526Z,16.51
2022-09-12T03:29:43.517Z,16.33
2022-09-12T03:32:10.066Z,16.37
2022-09-12T03:34:36.441Z,16.30
2022-09-12T03:37:02.846Z,16.17
2022-09-12T03:39:29.365Z,16.01
2022-09-12T03:41:56.415Z,15.99
2022-09-12T03:44:23.911Z,16.07
2022-09-12T03:46:50.500Z,16.18
2022-09-12T03:49:17.639Z,16.26
2022-09-12T03:51:44.383Z,16.23
2022-09-12T03:54:11.722Z,16.17
2022-09-12T03:56:38.680Z,16.16
2022-09-12T03:59:06.627Z,16.13
2022-09-12T04:01:33.728Z,16.13
2022-09-12T04:04:00.321Z,16.09
2022-09-12T04:06:26.662Z,16.10
2022-09-12T04:08:54.700Z,16.10
2022-09-12T04:11:22.134Z,16.04
2022-09-12T04:13:48.772Z,15.95
2022-09-12T04:16:16.598Z,15.95
2022-09-12T04:18:43.271Z,15.96
2022-09-12T04:21:12.113Z,15.87
2022-09-12T04:23:39.107Z,15.92
2022-09-12T04:26:09.012Z,15.87
2022-09-12T04:28:37.074Z,16.05
2022-09-12T04:31:09.173Z,15.87
2022-09-12T04:33:36.617Z,15.98
2022-09-12T04:36:08.450Z,15.98
2022-09-12T04:38:36.185Z,15.94
2022-09-12T04:41:21.044Z,16.03
2022-09-12T04:43:51.641Z,15.97
2022-09-12T04:46:21.420Z,16.04
2022-09-12T04:48:50.526Z,16.11
2022-09-12T04:51:22.955Z,16.19
2022-09-12T04:53:51.889Z,16.16
2022-09-12T04:56:20.403Z,15.85
2022-09-12T04:58:46.851Z,15.87
2022-09-12T05:01:16.108Z,15.90
2022-09-12T05:03:44.040Z,15.94
2022-09-12T05:06:13.241Z,15.88
2022-09-12T05:08:39.859Z,15.84
2022-09-12T05:11:12.669Z,15.90
2022-09-12T05:13:40.048Z,15.89
2022-09-12T05:16:08.113Z,15.94
2022-09-12T05:18:36.197Z,15.85
2022-09-12T05:21:05.725Z,15.90
2022-09-12T05:23:32.287Z,15.83
2022-09-12T05:26:00.126Z,15.85
2022-09-12T05:28:31.244Z,15.92
2022-09-12T05:31:10.416Z,15.88
2022-09-12T05:33:38.191Z,15.89
2022-09-12T05:36:06.730Z,15.93
2022-09-12T05:38:37.304Z,15.87
2022-09-12T05:41:16.923Z,15.99
2022-09-12T05:43:46.211Z,15.94
2022-09-12T05:46:15.939Z,15.94
2022-09-12T05:48:44.130Z,15.89
2022-09-12T05:51:14.214Z,15.83
2022-09-12T05:53:41.715Z,15.84
2022-09-12T05:56:13.404Z,15.78
2022-09-12T05:58:42.870Z,15.82
2022-09-12T06:01:15.150Z,15.81
2022-09-12T06:03:44.530Z,15.89
2022-09-12T06:06:13.618Z,15.93
2022-09-12T06:08:45.525Z,15.88
2022-09-12T06:11:14.790Z,15.81
2022-09-12T06:13:42.531Z,15.63
2022-09-12T06:16:18.041Z,15.64
2022-09-12T06:18:55.815Z,15.77
2022-09-12T06:21:23.889Z,15.78
2022-09-12T06:23:50.195Z,15.91
2022-09-12T06:26:18.364Z,15.87
2022-09-12T06:28:45.734Z,15.76
2022-09-12T06:31:15.477Z,15.81
2022-09-12T06:33:44.314Z,15.84
2022-09-12T06:36:12.806Z,15.87
2022-09-12T06:38:40.352Z,15.92
2022-09-12T06:41:08.959Z,15.89
2022-09-12T06:43:35.432Z,16.00
2022-09-12T06:46:02.543Z,16.10
2022-09-12T06:48:29.391Z,16.10
2022-09-12T06:51:01.130Z,16.21
2022-09-12T06:53:29.931Z,16.34
2022-09-12T06:56:07.726Z,16.47
2022-09-12T06:58:35.823Z,16.46
2022-09-12T07:01:15.185Z,16.44
2022-09-12T07:03:42.219Z,16.54
2022-09-12T07:06:10.919Z,16.52
2022-09-12T07:08:38.657Z,16.56
2022-09-12T07:11:23.048Z,16.42
2022-09-12T07:13:51.689Z,16.54
2022-09-12T07:16:19.988Z,16.60
2022-09-12T07:18:55.121Z,16.71
2022-09-12T07:21:21.791Z,16.74
2022-09-12T07:23:48.662Z,16.86
2022-09-12T07:26:16.195Z,16.91
2022-09-12T07:28:42.902Z,16.71
2022-09-12T07:31:15.919Z,16.91
2022-09-12T07:33:43.237Z,16.78
2022-09-12T07:36:18.334Z,16.70
2022-09-12T07:38:46.435Z,16.98
2022-09-12T07:41:19.933Z,17.11
2022-09-12T07:43:46.842Z,17.23
2022-09-12T07:46:14.760Z,17.29
2022-09-12T07:48:41.097Z,17.37
2022-09-12T07:51:12.044Z,17.37
2022-09-12T07:53:40.417Z,17.23
2022-09-12T07:56:08.481Z,17.47
2022-09-12T07:58:36.431Z,17.57
2022-09-12T08:01:08.956Z,17.50
2022-09-12T08:03:36.200Z,17.70
2022-09-12T08:06:14.757Z,17.63
2022-09-12T08:08:41.954Z,17.68
2022-09-12T08:11:11.507Z,17.75
2022-09-12T08:13:39.387Z,17.90
2022-09-12T08:16:08.952Z,17.99
2022-09-12T08:18:36.452Z,18.07
2022-09-12T08:21:07.533Z,18.08
2022-09-12T08:23:34.486Z,17.80
2022-09-12T08:26:06.304Z,17.99
2022-09-12T08:28:35.396Z,17.89
2022-09-12T08:31:06.514Z,17.75
2022-09-12T08:33:33.620Z,17.95
2022-09-12T08:36:27.191Z,18.12
2022-09-12T08:39:02.215Z,18.33
2022-09-12T08:41:34.705Z,18.16
2022-09-12T08:44:26.263Z,18.43
2022-09-12T08:47:10.044Z,18.63
2022-09-12T08:49:45.343Z,18.60
2022-09-12T08:52:17.120Z,18.78
2022-09-12T08:54:45.418Z,18.87
2022-09-12T08:57:14.455Z,18.82
2022-09-12T08:59:45.795Z,18.90
2022-09-12T09:02:32.053Z,19.06
2022-09-12T09:05:24.452Z,19.09
2022-09-12T09:08:17.373Z,19.06
2022-09-12T09:11:16.802Z,19.12
2022-09-12T09:14:17.177Z,19.16
2022-09-12T09:16:46.355Z,19.13
2022-09-12T09:19:19.306Z,19.09
2022-09-12T09:22:00.706Z,19.46
2022-09-12T09:24:38.182Z,19.57
2022-09-12T09:27:36.784Z,19.41
2022-09-12T09:29:59.506Z,19.37
2022-09-12T09:32:36.717Z,19.34
2022-09-12T09:35:15.627Z,19.67
2022-09-12T09:37:54.550Z,19.83
2022-09-12T09:40:30.905Z,19.61
2022-09-12T09:43:20.178Z,19.56
2022-09-12T09:45:47.958Z,19.90
2022-09-12T09:48:22.667Z,19.87
2022-09-12T09:50:50.008Z,19.79
2022-09-12T09:53:28.285Z,19.78
2022-09-12T09:55:56.701Z,20.07
2022-09-12T09:58:29.881Z,20.30
2022-09-12T10:01:02.160Z,20.48
2022-09-12T10:03:31.907Z,20.61
2022-09-12T10:06:23.364Z,20.75
2022-09-12T10:08:50.241Z,20.91
2022-09-12T10:11:16.502Z,20.85
2022-09-12T10:13:56.858Z,21.07
2022-09-12T10:16:30.943Z,20.96
2022-09-12T10:19:00.106Z,20.91
2022-09-12T10:21:47.438Z,20.68
2022-09-12T10:24:25.174Z,20.81
2022-09-12T10:26:58.081Z,21.01
2022-09-12T10:29:29.453Z,20.74
2022-09-12T10:31:58.989Z,20.98
2022-09-12T10:34:28.047Z,21.03
2022-09-12T10:36:59.978Z,21.24
2022-09-12T10:39:26.853Z,20.90
2022-09-12T10:41:53.218Z,20.84
2022-09-12T10:44:34.510Z,20.96
2022-09-12T10:47:20.323Z,21.14
2022-09-12T10:49:46.685Z,20.98
2022-09-12T10:52:20.304Z,21.21
2022-09-12T10:54:47.183Z,21.48
2022-09-12T10:57:39.741Z,21.56
2022-09-12T11:00:16.948Z,21.62
2022-09-12T11:02:57.360Z,21.67
2022-09-12T11:06:01.521Z,21.69
2022-09-12T11:09:02.974Z,21.81
2022-09-12T11:11:59.518Z,22.06
2022-09-12T11:14:44.342Z,21.96
2022-09-12T11:17:49.188Z,22.13
2022-09-12T11:20:40.834Z,22.29
2022-09-12T11:23:44.667Z,22.55
2022-09-12T11:26:32.959Z,22.54
2022-09-12T11:28:59.220Z,22.47
2022-09-12T11:31:56.231Z,22.47
2022-09-12T11:34:40.996Z,22.73
2022-09-12T11:37:48.859Z,22.77
2022-09-12T11:40:38.813Z,22.75
2022-09-12T11:43:22.065Z,23.10
2022-09-12T11:45:49.266Z,23.21
2022-09-12T11:48:59.203Z,23.40
2022-09-12T11:51:46.457Z,23.02
2022-09-12T11:54:22.790Z,22.75
2022-09-12T11:56:55.933Z,22.82
2022-09-12T11:59:25.627Z,22.76
2022-09-12T12:01:59.118Z,23.03
2022-09-12T12:04:35.223Z,23.15
2022-09-12T12:07:10.876Z,23.49
2022-09-12T12:09:47.652Z,23.31
2022-09-12T12:12:22.307Z,22.98
2022-09-12T12:14:51.124Z,23.30
2022-09-12T12:17:19.998Z,23.50
2022-09-12T12:19:50.818Z,23.20
2022-09-12T12:22:22.261Z,23.23
2022-09-12T12:25:08.860Z,23.47
2022-09-12T12:27:44.402Z,23.91
2022-09-12T12:30:29.275Z,23.96
2022-09-12T12:33:10.858Z,24.01
2022-09-12T12:35:42.727Z,23.63
2022-09-12T12:38:31.040Z,23.89
2022-09-12T12:41:19.164Z,23.90
2022-09-12T12:43:50.707Z,24.36
2022-09-12T12:46:19.926Z,24.33
2022-09-12T12:49:04.764Z,24.54
2022-09-12T12:51:46.885Z,24.62
2022-09-12T12:54:32.303Z,24.79
2022-09-12T12:57:17.595Z,24.95
2022-09-12T12:59:56.965Z,25.33
2022-09-12T13:02:32.010Z,25.02
2022-09-12T13:05:01.253Z,25.00
2022-09-12T13:07:38.053Z,25.35
2022-09-12T13:10:07.169Z,25.70
2022-09-12T13:12:45.911Z,26.00
2022-09-12T13:15:36.864Z,26.24
2022-09-12T13:18:06.782Z,26.50
2022-09-12T13:20:44.890Z,26.56
2022-09-12T13:23:25.956Z,26.15
2022-09-12T13:25:54.951Z,25.73
2022-09-12T13:28:21.600Z,25.75
2022-09-12T13:31:02.059Z,26.11
2022-09-12T13:33:43.092Z,26.31
2022-09-12T13:36:53.325Z,26.38
2022-09-12T13:39:29.765Z,25.61
2022-09-12T13:42:38.148Z,25.32
2022-09-12T13:45:07.671Z,25.83
2022-09-12T13:47:41.497Z,26.11
2022-09-12T13:50:14.241Z,26.38
2022-09-12T13:52:40.645Z,26.54
2022-09-12T13:55:20.658Z,26.79
2022-09-12T13:57:57.991Z,26.84
2022-09-12T14:00:24.280Z,26.62
2022-09-12T14:03:10.947Z,26.84
2022-09-12T14:05:39.759Z,26.98
2022-09-12T14:08:08.893Z,26.80
2022-09-12T14:10:39.270Z,26.95
2022-09-12T14:13:17.768Z,26.89
2022-09-12T14:15:46.979Z,26.81
2022-09-12T14:18:24.088Z,26.81
2022-09-12T14:20:54.911Z,26.48
2022-09-12T14:23:28.460Z,26.58
2022-09-12T14:25:56.227Z,26.80
2022-09-12T14:28:23.910Z,27.00
2022-09-12T14:31:02.755Z,27.05
2022-09-12T14:33:33.051Z,27.23
2022-09-12T14:36:12.081Z,27.40
2022-09-12T14:38:44.013Z,27.45
2022-09-12T14:41:13.371Z,27.42
2022-09-12T14:43:45.581Z,27.50
2022-09-12T14:46:17.445Z,27.68
2022-09-12T14:48:48.801Z,27.80
2022-09-12T14:51:51.456Z,28.11
2022-09-12T14:54:30.193Z,28.17
2022-09-12T14:57:03.260Z,28.19
2022-09-12T14:59:35.826Z,28.02
2022-09-12T15:02:20.428Z,27.92
2022-09-12T15:04:49.471Z,28.11
2022-09-12T15:07:41.224Z,28.19
2022-09-12T15:10:21.983Z,28.37
2022-09-12T15:12:49.131Z,28.59
2022-09-12T15:15:18.547Z,28.46
2022-09-12T15:17:45.104Z,28.57
2022-09-12T15:20:13.336Z,28.77
2022-09-12T15:22:42.151Z,28.81
2022-09-12T15:25:12.215Z,28.77
2022-09-12T15:27:40.834Z,28.98
2022-09-12T15:30:09.717Z,29.05
2022-09-12T15:32:37.067Z,29.18
2022-09-12T15:35:03.836Z,29.22
2022-09-12T15:37:30.944Z,29.15
2022-09-12T15:39:57.304Z,29.50
2022-09-12T15:42:29.248Z,29.72
2022-09-12T15:44:59.430Z,29.53
2022-09-12T15:47:28.201Z,29.87
2022-09-12T15:49:54.506Z,30.13
2022-09-12T15:52:20.819Z,30.49
2022-09-12T15:54:47.167Z,30.75
2022-09-12T15:57:13.463Z,30.85
2022-09-12T15:59:39.768Z,31.11
2022-09-12T16:02:06.801Z,31.10
2022-09-12T16:04:33.166Z,31.19
2022-09-12T16:06:59.549Z,31.30
2022-09-12T16:09:25.831Z,31.39
2022-09-12T16:11:52.273Z,31.38
2022-09-12T16:14:19.284Z,31.46
2022-09-12T16:16:53.355Z,31.65
2022-09-12T16:19:20.167Z,31.62
2022-09-12T16:21:46.804Z,31.51
2022-09-12T16:24:13.112Z,31.41
2022-09-12T16:26:39.503Z,31.35
2022-09-12T16:29:05.894Z,31.36
2022-09-12T16:31:32.253Z,31.29
2022-09-12T16:33:58.605Z,31.31
2022-09-12T16:36:24.884Z,31.22
2022-09-12T16:38:53.342Z,31.36
2022-09-12T16:41:21.752Z,31.31
2022-09-12T16:43:48.497Z,31.45
2022-09-12T16:46:23.065Z,31.55
2022-09-12T16:48:53.164Z,31.63
2022-09-12T16:51:22.250Z,31.39
2022-09-12T16:53:49.405Z,31.44
2022-09-12T16:56:15.777Z,31.47
2022-09-12T16:58:43.067Z,31.22
2022-09-12T17:01:12.126Z,30.92
2022-09-12T17:03:39.003Z,30.61
2022-09-12T17:06:12.920Z,30.38
2022-09-12T17:08:42.959Z,30.15
2022-09-12T17:11:15.689Z,29.68
2022-09-12T17:14:04.022Z,29.58
2022-09-12T17:16:33.929Z,29.24
2022-09-12T17:19:03.148Z,29.01
2022-09-12T17:21:29.614Z,28.61
2022-09-12T17:23:55.983Z,28.58
2022-09-12T17:26:22.525Z,28.53
2022-09-12T17:28:48.934Z,28.43
2022-09-12T17:31:15.724Z,28.29
2022-09-12T17:33:42.171Z,28.25
2022-09-12T17:36:11.511Z,28.12
2022-09-12T17:38:39.624Z,27.97
2022-09-12T17:41:08.334Z,27.99
2022-09-12T17:43:37.989Z,27.88
2022-09-12T17:46:04.967Z,27.82
2022-09-12T17:48:31.335Z,27.52
2022-09-12T17:50:58.977Z,27.47
2022-09-12T17:53:25.374Z,27.30
2022-09-12T17:55:54.338Z,27.21
2022-09-12T17:58:20.867Z,27.17
2022-09-12T18:01:05.739Z,26.80
2022-09-12T18:03:32.035Z,26.72
2022-09-12T18:05:58.331Z,26.67
2022-09-12T18:08:24.681Z,26.73
2022-09-12T18:10:52.320Z,26.71
2022-09-12T18:13:18.607Z,26.65
2022-09-12T18:15:44.963Z,26.56
2022-09-12T18:18:11.335Z,26.57
2022-09-12T18:20:37.657Z,26.44
2022-09-12T18:23:04.641Z,26.43
2022-09-12T18:25:30.948Z,26.42
2022-09-12T18:27:57.424Z,26.22
2022-09-12T18:30:23.897Z,26.06
2022-09-12T18:32:50.572Z,26.04
2022-09-12T18:35:17.131Z,26.05
2022-09-12T18:37:43.915Z,25.88
2022-09-12T18:40:10.801Z,25.68
2022-09-12T18:42:37.112Z,25.71
2022-09-12T18:45:03.638Z,25.73
2022-09-12T18:47:30.062Z,25.66
2022-09-12T18:49:56.397Z,25.49
2022-09-12T18:52:22.806Z,25.45
2022-09-12T18:54:49.449Z,25.24
2022-09-12T18:57:15.782Z,25.16
2022-09-12T18:59:42.168Z,25.07
2022-09-12T19:02:15.757Z,24.98
2022-09-12T19:04:42.183Z,24.84
2022-09-12T19:07:08.576Z,24.72
2022-09-12T19:09:34.943Z,24.59
2022-09-12T19:12:01.485Z,24.52
2022-09-12T19:14:27.898Z,24.54
2022-09-12T19:16:54.280Z,24.50
2022-09-12T19:19:21.483Z,24.43
2022-09-12T19:21:47.892Z,24.39
2022-09-12T19:24:14.702Z,24.38
2022-09-12T19:26:41.519Z,24.28
2022-09-12T19:29:08.307Z,24.31
2022-09-12T19:31:34.962Z,24.20
2022-09-12T19:34:03.000Z,23.91
2022-09-12T19:36:46.735Z,23.69
2022-09-12T19:39:14.727Z,23.40
2022-09-12T19:41:41.205Z,23.53
2022-09-12T19:44:07.671Z,23.55
2022-09-12T19:46:34.126Z,23.62
2022-09-12T19:49:00.455Z,23.45
2022-09-12T19:51:26.787Z,23.53
2022-09-12T19:53:53.553Z,23.58
2022-09-12T19:56:20.662Z,23.51
2022-09-12T19:58:52.272Z,23.43
2022-09-12T20:01:25.014Z,23.11
2022-09-12T20:03:54.999Z,23.19
2022-09-12T20:06:21.430Z,23.18
2022-09-12T20:08:48.090Z,23.13
2022-09-12T20:11:17.553Z,23.02
2022-09-12T20:13:44.966Z,22.97
2022-09-12T20:16:21.272Z,22.96
2022-09-12T20:18:52.937Z,22.93
2022-09-12T20:21:24.940Z,22.80
2022-09-12T20:23:51.297Z,22.80
2022-09-12T20:26:17.757Z,22.70
2022-09-12T20:28:44.050Z,22.56
2022-09-12T20:31:13.958Z,22.40
2022-09-12T20:33:40.489Z,22.53
2022-09-12T20:36:09.907Z,22.40
2022-09-12T20:38:36.923Z,22.38
2022-09-12T20:41:05.297Z,22.33
2022-09-12T20:43:31.870Z,22.17
2022-09-12T20:45:58.274Z,22.01
2022-09-12T20:48:25.212Z,21.82
2022-09-12T20:50:51.499Z,21.83
2022-09-12T20:53:17.903Z,21.89
2022-09-12T20:55:51.408Z,21.85
2022-09-12T20:58:18.272Z,21.89
2022-09-12T21:00:45.180Z,21.69
2022-09-12T21:03:12.268Z,21.78
2022-09-12T21:05:38.647Z,21.77
2022-09-12T21:08:05.983Z,21.68
2022-09-12T21:10:32.471Z,21.71
2022-09-12T21:12:58.817Z,21.70
2022-09-12T21:15:25.249Z,21.80
2022-09-12T21:17:52.452Z,21.83
2022-09-12T21:20:19.163Z,21.71
2022-09-12T21:22:45.518Z,21.66
2022-09-12T21:25:11.885Z,21.63
2022-09-12T21:27:38.193Z,21.71
2022-09-12T21:30:05.443Z,21.68
2022-09-12T21:32:37.033Z,21.48
2022-09-12T21:35:05.113Z,21.46
2022-09-12T21:37:32.080Z,21.50
2022-09-12T21:39:59.222Z,21.44
2022-09-12T21:42:25.670Z,21.42
2022-09-12T21:44:52.169Z,21.35
2022-09-12T21:47:18.800Z,21.31
2022-09-12T21:49:45.115Z,21.19
2022-09-12T21:52:12.845Z,21.12
2022-09-12T21:54:39.398Z,21.18
2022-09-12T21:57:06.084Z,21.18
2022-09-12T21:59:32.513Z,21.23
2022-09-12T22:01:58.841Z,21.10
2022-09-12T22:04:26.225Z,20.91
2022-09-12T22:06:52.788Z,20.75
2022-09-12T22:09:19.119Z,20.90
2022-09-12T22:11:45.421Z,20.93
2022-09-12T22:14:11.730Z,20.95
2022-09-12T22:16:38.019Z,20.93
2022-09-12T22:19:04.310Z,20.90
2022-09-12T22:21:30.612Z,20.74
2022-09-12T22:24:15.531Z,20.74
2022-09-12T22:26:46.183Z,20.80
2022-09-12T22:29:13.305Z,20.69
2022-09-12T22:31:42.843Z,20.60
2022-09-12T22:34:11.409Z,20.47
2022-09-12T22:36:39.188Z,20.58
2022-09-12T22:39:08.649Z,20.52
2022-09-12T22:41:35.064Z,20.46
2022-09-12T22:44:05.310Z,20.58
2022-09-12T22:46:32.545Z,20.46
2022-09-12T22:49:06.777Z,20.40
2022-09-12T22:51:33.832Z,20.17
2022-09-12T22:54:03.281Z,20.12
2022-09-12T22:56:29.581Z,20.07
2022-09-12T22:58:55.956Z,20.07
2022-09-12T23:01:22.796Z,19.95
2022-09-12T23:03:49.299Z,20.09
2022-09-12T23:06:16.562Z,19.90
2022-09-12T23:08:43.279Z,19.99
2022-09-12T23:11:13.081Z,19.79
2022-09-12T23:13:42.386Z,19.57
2022-09-12T23:16:15.619Z,19.70
2022-09-12T23:18:41.999Z,19.81
2022-09-12T23:21:10.331Z,19.78
2022-09-12T23:23:37.557Z,19.88
2022-09-12T23:26:13.146Z,19.87
2022-09-12T23:28:40.849Z,19.92
2022-09-12T23:31:09.614Z,19.94
2022-09-12T23:33:36.308Z,19.84
2022-09-12T23:36:06.113Z,19.72
2022-09-12T23:38:33.837Z,19.62
2022-09-12T23:41:01.417Z,19.60
2022-09-12T23:43:27.981Z,19.65
2022-09-12T23:45:54.333Z,19.65
2022-09-12T23:48:20.816Z,19.53
2022-09-12T23:50:48.671Z,19.60
2022-09-12T23:53:16.990Z,19.60
2022-09-12T23:55:44.737Z,19.51
2022-09-12T23:58:11.539Z,19.49
